createdAt,value
2022-11-02T00:01:56.763Z,50.55
2022-11-02T00:04:23.780Z,48.90
2022-11-02T00:06:50.739Z,47.78
2022-11-02T00:09:17.674Z,50.65
2022-11-02T00:11:44.607Z,49.92
2022-11-02T00:14:11.796Z,49.45
2022-11-02T00:16:40.380Z,51.97
2022-11-02T00:19:09.132Z,48.40
2022-11-02T00:21:37.623Z,58.67
2022-11-02T00:24:05.973Z,62.80
2022-11-02T00:26:35.076Z,63.72
2022-11-02T00:29:03.086Z,71.88
2022-11-02T00:31:30.133Z,62.63
2022-11-02T00:33:57.202Z,65.38
2022-11-02T00:36:28.077Z,72.53
2022-11-02T00:38:55.097Z,71.95
2022-11-02T00:41:22.234Z,70.50
2022-11-02T00:43:49.452Z,68.72
2022-11-02T00:46:16.389Z,55.67
2022-11-02T00:48:43.426Z,60.38
2022-11-02T00:51:11.751Z,52.38
2022-11-02T00:53:40.463Z,56.28
2022-11-02T00:56:07.959Z,53.88
2022-11-02T00:58:34.947Z,49.75
2022-11-02T01:01:06.382Z,48.13
2022-11-02T01:03:33.714Z,51.13
2022-11-02T01:06:12.196Z,47.60
2022-11-02T01:08:40.685Z,44.17
2022-11-02T01:11:16.687Z,43.97
2022-11-02T01:13:44.650Z,41.83
2022-11-02T01:16:13.220Z,46.80
2022-11-02T01:18:40.838Z,44.13
2022-11-02T01:21:08.296Z,39.35
2022-11-02T01:23:37.489Z,42.53
2022-11-02T01:26:09.927Z,41.60
2022-11-02T01:28:37.684Z,43.55
2022-11-02T01:31:05.170Z,42.50
2022-11-02T01:33:33.028Z,40.60
2022-11-02T01:36:04.315Z,37.40
2022-11-02T01:38:32.355Z,40.53
2022-11-02T01:40:59.946Z,45.70
2022-11-02T01:43:26.764Z,36.72
2022-11-02T01:46:06.210Z,40.85
2022-11-02T01:48:50.411Z,43.00
2022-11-02T01:51:36.336Z,44.20
2022-11-02T01:54:14.411Z,43.65
2022-11-02T01:56:43.245Z,40.47
2022-11-02T01:59:14.995Z,40.78
2022-11-02T02:01:42.025Z,46.42
2022-11-02T02:04:12.753Z,42.13
2022-11-02T02:06:40.913Z,45.08
2022-11-02T02:09:09.018Z,43.08
2022-11-02T02:11:40.076Z,45.65
2022-11-02T02:14:12.136Z,53.20
2022-11-02T02:16:55.162Z,46.13
2022-11-02T02:19:29.484Z,47.40
2022-11-02T02:22:25.418Z,54.35
2022-11-02T02:24:59.173Z,49.70
2022-11-02T02:28:04.486Z,55.13
2022-11-02T02:30:40.980Z,51.30
2022-11-02T02:33:14.347Z,52.50
2022-11-02T02:35:41.727Z,54.80
2022-11-02T02:38:22.633Z,47.08
2022-11-02T02:41:14.720Z,56.40
2022-11-02T02:43:49.618Z,57.60
2022-11-02T02:46:34.744Z,51.65
2022-11-02T02:49:04.396Z,53.92
2022-11-02T02:51:35.753Z,51.25
2022-11-02T02:54:10.541Z,51.35
2022-11-02T02:56:43.437Z,51.63
2022-11-02T02:59:22.192Z,54.78
2022-11-02T03:01:49.810Z,52.55
2022-11-02T03:04:16.883Z,47.65
2022-11-02T03:06:48.382Z,46.47
2022-11-02T03:09:34.215Z,50.40
2022-11-02T03:12:39.379Z,47.50
2022-11-02T03:15:28.262Z,49.40
2022-11-02T03:18:14.735Z,44.60
2022-11-02T03:20:58.580Z,51.42
2022-11-02T03:23:37.593Z,46.45
2022-11-02T03:26:17.344Z,50.75
2022-11-02T03:29:06.614Z,48.60
2022-11-02T03:31:46.309Z,47.83
2022-11-02T03:34:24.850Z,51.28
2022-11-02T03:37:31.647Z,50.28
2022-11-02T03:40:26.055Z,51.88
2022-11-02T03:42:54.556Z,51.72
2022-11-02T03:45:24.804Z,55.92
2022-11-02T03:47:58.751Z,54.03
2022-11-02T03:50:27.888Z,52.30
2022-11-02T03:53:01.455Z,55.00
2022-11-02T03:55:42.188Z,52.67
2022-11-02T03:58:12.831Z,52.97
2022-11-02T04:00:50.421Z,50.78
2022-11-02T04:03:19.649Z,48.60
2022-11-02T04:05:46.718Z,51.00
2022-11-02T04:08:39.155Z,52.45
2022-11-02T04:11:27.720Z,48.90
2022-11-02T04:14:17.604Z,52.05
2022-11-02T04:16:45.984Z,53.45
2022-11-02T04:19:28.768Z,47.83
2022-11-02T04:22:26.226Z,50.85
2022-11-02T04:25:16.488Z,52.50
2022-11-02T04:27:51.485Z,51.75
2022-11-02T04:30:23.212Z,50.67
2022-11-02T04:33:11.325Z,51.70
2022-11-02T04:35:45.139Z,49.03
2022-11-02T04:38:31.971Z,55.97
2022-11-02T04:41:18.991Z,48.47
2022-11-02T04:43:49.002Z,49.78
2022-11-02T04:46:17.985Z,48.85
2022-11-02T04:48:46.003Z,48.25
2022-11-02T04:51:13.485Z,47.88
2022-11-02T04:53:40.621Z,48.85
2022-11-02T04:56:10.142Z,47.22
2022-11-02T04:58:37.154Z,51.75
2022-11-02T05:01:11.434Z,42.15
2022-11-02T05:03:38.725Z,47.83
2022-11-02T05:06:06.074Z,51.72
2022-11-02T05:08:33.040Z,41.78
2022-11-02T05:11:00.263Z,48.35
2022-11-02T05:13:28.917Z,53.70
2022-11-02T05:15:59.752Z,54.35
2022-11-02T05:18:29.625Z,51.33
2022-11-02T05:21:01.646Z,51.30
2022-11-02T05:23:30.321Z,54.78
2022-11-02T05:26:05.143Z,57.20
2022-11-02T05:28:34.454Z,56.47
2022-11-02T05:31:04.106Z,51.40
2022-11-02T05:33:33.794Z,54.15
2022-11-02T05:36:06.535Z,53.78
2022-11-02T05:38:36.020Z,53.97
2022-11-02T05:41:03.187Z,55.22
2022-11-02T05:43:34.262Z,53.17
2022-11-02T05:46:03.589Z,57.35
2022-11-02T05:48:33.665Z,51.88
2022-11-02T05:51:03.193Z,52.92
2022-11-02T05:53:32.670Z,56.45
2022-11-02T05:56:01.165Z,48.33
2022-11-02T05:58:28.536Z,48.90
2022-11-02T06:00:58.486Z,53.50
2022-11-02T06:03:25.397Z,50.78
2022-11-02T06:06:04.243Z,47.53
2022-11-02T06:08:36.033Z,51.00
2022-11-02T06:11:10.356Z,54.08
2022-11-02T06:13:38.186Z,45.95
2022-11-02T06:16:09.279Z,47.70
2022-11-02T06:18:37.221Z,50.75
2022-11-02T06:21:04.634Z,49.15
2022-11-02T06:23:31.737Z,44.40
2022-11-02T06:26:00.187Z,49.38
2022-11-02T06:28:27.741Z,48.42
2022-11-02T06:30:55.631Z,43.88
2022-11-02T06:33:23.378Z,44.50
2022-11-02T06:35:54.558Z,46.97
2022-11-02T06:38:22.181Z,45.35
2022-11-02T06:41:03.393Z,50.05
2022-11-02T06:43:31.201Z,47.15
2022-11-02T06:45:59.395Z,44.50
2022-11-02T06:48:33.314Z,44.63
2022-11-02T06:51:03.000Z,44.65
2022-11-02T06:53:30.094Z,47.22
2022-11-02T06:55:58.684Z,46.55
2022-11-02T06:58:26.447Z,48.20
2022-11-02T07:01:01.640Z,40.80
2022-11-02T07:03:29.331Z,44.20
2022-11-02T07:05:56.771Z,49.40
2022-11-02T07:08:23.813Z,46.22
2022-11-02T07:10:51.067Z,46.03
2022-11-02T07:13:18.352Z,45.67
2022-11-02T07:15:45.354Z,44.58
2022-11-02T07:18:13.067Z,49.17
2022-11-02T07:20:40.265Z,49.10
2022-11-02T07:23:07.439Z,53.28
2022-11-02T07:25:35.385Z,49.28
2022-11-02T07:28:02.895Z,54.60
2022-11-02T07:30:32.975Z,56.67
2022-11-02T07:33:00.256Z,58.53
2022-11-02T07:35:27.704Z,49.90
2022-11-02T07:37:59.008Z,51.17
2022-11-02T07:40:26.583Z,50.42
2022-11-02T07:42:56.318Z,44.80
2022-11-02T07:45:32.967Z,46.88
2022-11-02T07:48:00.104Z,38.38
2022-11-02T07:50:27.385Z,43.88
2022-11-02T07:52:56.377Z,42.38
2022-11-02T07:55:25.998Z,40.92
2022-11-02T07:57:58.335Z,40.65
2022-11-02T08:00:27.272Z,40.10
2022-11-02T08:02:55.578Z,35.53
2022-11-02T08:05:23.091Z,41.22
2022-11-02T08:08:01.242Z,43.47
2022-11-02T08:10:32.820Z,40.10
2022-11-02T08:13:04.271Z,37.33
2022-11-02T08:15:31.531Z,42.70
2022-11-02T08:18:18.488Z,36.53
2022-11-02T08:20:46.354Z,37.35
2022-11-02T08:23:15.609Z,39.38
2022-11-02T08:25:45.736Z,37.47
2022-11-02T08:28:22.007Z,36.38
2022-11-02T08:30:49.249Z,35.33
2022-11-02T08:33:18.555Z,33.92
2022-11-02T08:35:46.435Z,35.03
2022-11-02T08:38:14.195Z,31.20
2022-11-02T08:40:41.459Z,35.50
2022-11-02T08:43:10.928Z,35.85
2022-11-02T08:48:28.221Z,30.50
2022-11-02T08:50:56.272Z,28.77
2022-11-02T08:53:23.371Z,27.55
2022-11-02T08:55:50.405Z,32.00
2022-11-02T08:58:18.584Z,30.17
2022-11-02T09:00:45.688Z,30.02
2022-11-02T09:03:15.447Z,31.05
2022-11-02T09:05:47.566Z,26.63
2022-11-02T09:08:20.093Z,29.08
2022-11-02T09:10:50.209Z,28.48
2022-11-02T09:13:25.321Z,30.27
2022-11-02T09:15:55.201Z,26.77
2022-11-02T09:18:22.826Z,31.67
2022-11-02T09:20:50.017Z,25.90
2022-11-02T09:23:17.884Z,29.42
2022-11-02T09:25:46.676Z,24.80
2022-11-02T09:28:15.619Z,25.27
2022-11-02T09:30:43.048Z,24.13
2022-11-02T09:33:11.241Z,24.75
2022-11-02T09:35:44.218Z,24.63
2022-11-02T09:38:11.333Z,24.85
2022-11-02T09:40:38.237Z,21.65
2022-11-02T09:43:34.008Z,16.52
2022-11-02T09:46:13.395Z,18.10
2022-11-02T09:48:51.560Z,16.55
2022-11-02T09:51:23.139Z,18.55
2022-11-02T09:54:18.469Z,19.67
2022-11-02T09:56:46.356Z,16.23
2022-11-02T09:59:16.844Z,17.23
2022-11-02T10:01:55.638Z,22.55
2022-11-02T10:04:40.862Z,18.25
2022-11-02T10:07:10.650Z,15.43
2022-11-02T10:10:00.365Z,15.80
2022-11-02T10:12:35.267Z,14.85
2022-11-02T10:15:24.024Z,17.40
2022-11-02T10:17:55.325Z,16.17
2022-11-02T10:20:46.994Z,16.45
2022-11-02T10:23:33.795Z,19.70
2022-11-02T10:26:02.692Z,18.88
2022-11-02T10:28:33.839Z,19.30
2022-11-02T10:31:02.825Z,16.15
2022-11-02T10:33:31.140Z,21.33
2022-11-02T10:36:18.057Z,18.52
2022-11-02T10:39:13.307Z,19.10
2022-11-02T10:41:45.913Z,20.33
2022-11-02T10:44:18.992Z,16.20
2022-11-02T10:47:12.335Z,13.57
2022-11-02T10:49:57.885Z,17.35
2022-11-02T10:52:25.907Z,12.30
2022-11-02T10:54:53.326Z,12.93
2022-11-02T10:57:25.310Z,15.60
2022-11-02T11:00:26.477Z,15.55
2022-11-02T11:03:06.918Z,12.70
2022-11-02T11:05:43.754Z,12.50
2022-11-02T11:08:28.887Z,16.63
2022-11-02T11:11:09.019Z,13.10
2022-11-02T11:16:44.801Z,13.93
2022-11-02T11:22:40.507Z,17.33
2022-11-02T11:25:13.759Z,16.00
2022-11-02T11:27:55.640Z,10.93
2022-11-02T11:33:24.897Z,10.45
2022-11-02T11:35:52.344Z,11.30
2022-11-02T11:38:24.359Z,9.48
2022-11-02T11:40:56.162Z,13.82
2022-11-02T11:43:35.076Z,9.18
2022-11-02T11:46:06.840Z,9.52
2022-11-02T11:48:42.067Z,12.75
2022-11-02T11:51:48.650Z,10.68
2022-11-02T11:54:29.820Z,15.10
2022-11-02T11:57:19.173Z,10.73
2022-11-02T11:59:48.571Z,7.80
2022-11-02T12:02:27.793Z,11.23
2022-11-02T12:05:16.075Z,9.35
2022-11-02T12:07:56.144Z,6.78
2022-11-02T12:11:02.776Z,9.82
2022-11-02T12:13:43.394Z,9.13
2022-11-02T12:16:47.545Z,9.48
2022-11-02T12:19:44.086Z,10.38
2022-11-02T12:22:22.889Z,11.10
2022-11-02T12:25:08.731Z,10.48
2022-11-02T12:27:49.613Z,10.10
2022-11-02T12:30:31.416Z,9.38
2022-11-02T12:33:04.315Z,11.88
2022-11-02T12:36:09.004Z,8.68
2022-11-02T12:38:56.857Z,10.43
2022-11-02T12:41:41.687Z,12.25
2022-11-02T12:44:33.534Z,10.65
2022-11-02T12:47:14.414Z,8.82
2022-11-02T12:49:46.657Z,10.10
2022-11-02T12:52:44.067Z,9.07
2022-11-02T12:55:25.036Z,9.13
2022-11-02T12:57:58.747Z,10.30
2022-11-02T13:00:27.051Z,9.75
2022-11-02T13:03:13.613Z,13.57
2022-11-02T13:05:46.634Z,30.77
2022-11-02T13:08:23.215Z,19.98
2022-11-02T13:11:01.305Z,9.98
2022-11-02T13:13:35.813Z,11.55
2022-11-02T13:16:04.075Z,9.25
2022-11-02T13:18:38.024Z,10.60
2022-11-02T13:21:05.303Z,9.65
2022-11-02T13:23:44.665Z,14.02
2022-11-02T13:26:33.925Z,9.05
2022-11-02T13:29:22.303Z,11.27
2022-11-02T13:31:58.126Z,8.60
2022-11-02T13:34:37.966Z,9.60
2022-11-02T13:37:29.199Z,9.65
2022-11-02T13:40:05.031Z,10.55
2022-11-02T13:42:50.763Z,8.80
2022-11-02T13:45:36.288Z,9.25
2022-11-02T13:48:15.057Z,11.88
2022-11-02T13:50:53.755Z,12.52
2022-11-02T13:53:33.376Z,11.43
2022-11-02T13:56:08.208Z,15.57
2022-11-02T13:58:39.118Z,12.10
2022-11-02T14:01:10.014Z,12.60
2022-11-02T14:03:46.063Z,13.75
2022-11-02T14:06:16.294Z,15.93
2022-11-02T14:09:10.728Z,11.10
2022-11-02T14:11:40.684Z,11.88
2022-11-02T14:14:10.736Z,12.48
2022-11-02T14:16:47.071Z,17.27
2022-11-02T14:19:32.038Z,16.70
2022-11-02T14:21:59.084Z,17.92
2022-11-02T14:24:36.210Z,18.48
2022-11-02T14:27:12.758Z,23.17
2022-11-02T14:29:42.573Z,15.43
2022-11-02T14:32:48.002Z,17.92
2022-11-02T14:35:23.753Z,16.58
2022-11-02T14:37:59.767Z,17.05
2022-11-02T14:40:56.201Z,15.18
2022-11-02T14:44:00.428Z,15.05
2022-11-02T14:46:36.037Z,11.73
2022-11-02T14:49:04.488Z,12.85
2022-11-02T14:51:37.932Z,15.75
2022-11-02T14:54:18.825Z,13.10
2022-11-02T14:56:54.209Z,10.75
2022-11-02T14:59:25.351Z,14.02
2022-11-02T15:02:28.476Z,12.77
2022-11-02T15:04:59.068Z,11.88
2022-11-02T15:07:42.201Z,15.25
2022-11-02T15:10:18.285Z,17.63
2022-11-02T15:12:48.924Z,12.75
2022-11-02T15:15:37.403Z,12.95
2022-11-02T15:18:33.072Z,15.70
2022-11-02T15:21:17.208Z,13.52
2022-11-02T15:23:50.848Z,14.15
2022-11-02T15:26:47.261Z,15.40
2022-11-02T15:29:17.318Z,14.38
2022-11-02T15:31:53.070Z,15.32
2022-11-02T15:34:22.344Z,18.08
2022-11-02T15:36:49.994Z,21.25
2022-11-02T15:39:18.406Z,13.80
2022-11-02T15:42:07.583Z,16.83
2022-11-02T15:44:44.739Z,15.45
2022-11-02T15:47:35.391Z,18.73
2022-11-02T15:50:28.423Z,16.60
2022-11-02T15:56:25.665Z,23.67
2022-11-02T15:59:04.678Z,17.85
2022-11-02T16:01:31.792Z,16.80
2022-11-02T16:04:06.811Z,14.68
2022-11-02T16:06:43.480Z,18.05
2022-11-02T16:09:32.975Z,16.90
2022-11-02T16:12:19.105Z,16.45
2022-11-02T16:14:55.943Z,15.98
2022-11-02T16:17:28.581Z,15.10
2022-11-02T16:20:28.784Z,16.92
2022-11-02T16:23:05.054Z,19.60
2022-11-02T16:25:39.956Z,15.30
2022-11-02T16:28:21.563Z,15.30
2022-11-02T16:31:13.513Z,17.88
2022-11-02T16:33:44.254Z,17.77
2022-11-02T16:36:24.075Z,15.57
2022-11-02T16:39:03.563Z,17.60
2022-11-02T16:41:33.878Z,16.73
2022-11-02T16:44:08.602Z,15.98
2022-11-02T16:46:59.971Z,18.35
2022-11-02T16:49:28.474Z,20.25
2022-11-02T16:52:00.799Z,17.10
2022-11-02T16:54:27.684Z,21.90
2022-11-02T16:56:59.718Z,20.98
2022-11-02T16:59:26.755Z,24.48
2022-11-02T17:02:01.675Z,24.67
2022-11-02T17:04:31.645Z,20.75
2022-11-02T17:07:22.373Z,24.13
2022-11-02T17:09:55.897Z,23.15
2022-11-02T17:12:29.664Z,26.08
2022-11-02T17:14:57.476Z,27.77
2022-11-02T17:17:24.424Z,27.63
2022-11-02T17:20:16.344Z,30.25
2022-11-02T17:22:52.093Z,29.90
2022-11-02T17:25:35.760Z,26.45
2022-11-02T17:28:24.486Z,30.08
2022-11-02T17:30:52.850Z,38.88
2022-11-02T17:33:26.267Z,30.67
2022-11-02T17:35:55.930Z,29.23
2022-11-02T17:38:28.207Z,30.60
2022-11-02T17:40:55.675Z,31.17
2022-11-02T17:43:23.569Z,30.17
2022-11-02T17:45:55.406Z,32.45
2022-11-02T17:48:22.579Z,32.85
2022-11-02T17:50:53.637Z,35.58
2022-11-02T17:53:21.068Z,32.33
2022-11-02T17:55:48.175Z,37.08
2022-11-02T17:58:15.531Z,36.13
2022-11-02T18:00:43.018Z,34.63
2022-11-02T18:03:19.418Z,38.33
2022-11-02T18:05:50.071Z,34.03
2022-11-02T18:08:18.939Z,38.08
2022-11-02T18:10:50.272Z,31.48
2022-11-02T18:13:20.120Z,32.72
2022-11-02T18:15:47.086Z,32.20
2022-11-02T18:18:14.114Z,35.08
2022-11-02T18:20:42.163Z,32.80
2022-11-02T18:23:17.124Z,34.55
2022-11-02T18:25:44.168Z,36.53
2022-11-02T18:28:11.126Z,36.67
2022-11-02T18:30:43.953Z,34.58
2022-11-02T18:33:13.675Z,35.08
2022-11-02T18:35:42.396Z,42.20
2022-11-02T18:38:09.480Z,34.63
2022-11-02T18:40:36.444Z,37.38
2022-11-02T18:43:03.909Z,38.42
2022-11-02T18:45:31.065Z,39.88
2022-11-02T18:47:58.266Z,38.75
2022-11-02T18:50:26.663Z,40.92
2022-11-02T18:52:53.616Z,40.65
2022-11-02T18:55:20.537Z,40.35
2022-11-02T18:57:50.418Z,39.75
2022-11-02T19:00:17.502Z,39.05
2022-11-02T19:02:44.447Z,41.17
2022-11-02T19:05:31.486Z,39.75
2022-11-02T19:08:20.582Z,43.90
2022-11-02T19:10:48.539Z,40.80
2022-11-02T19:13:15.507Z,37.10
2022-11-02T19:15:42.997Z,37.50
2022-11-02T19:18:10.110Z,38.15
2022-11-02T19:20:37.150Z,36.83
2022-11-02T19:23:04.093Z,51.45
2022-11-02T19:25:31.015Z,40.17
2022-11-02T19:27:58.070Z,36.90
2022-11-02T19:30:25.020Z,41.15
2022-11-02T19:32:51.964Z,41.90
2022-11-02T19:35:19.110Z,38.65
2022-11-02T19:37:45.996Z,41.15
2022-11-02T19:40:13.094Z,37.90
2022-11-02T19:42:41.465Z,41.10
2022-11-02T19:45:08.881Z,35.97
2022-11-02T19:47:36.015Z,37.72
2022-11-02T19:50:02.993Z,37.75
2022-11-02T19:52:30.018Z,38.33
2022-11-02T19:54:57.039Z,38.60
2022-11-02T19:57:24.141Z,38.85
2022-11-02T19:59:51.461Z,36.53
2022-11-02T20:02:18.406Z,36.90
2022-11-02T20:04:45.904Z,40.58
2022-11-02T20:07:12.860Z,42.30
2022-11-02T20:09:39.853Z,37.33
2022-11-02T20:12:07.659Z,41.72
2022-11-02T20:14:36.396Z,38.13
2022-11-02T20:17:30.201Z,38.63
2022-11-02T20:19:50.578Z,38.10
2022-11-02T20:22:18.597Z,40.72
2022-11-02T20:24:45.591Z,40.88
2022-11-02T20:27:14.017Z,39.88
2022-11-02T20:29:41.064Z,38.05
2022-11-02T20:32:10.283Z,42.33
2022-11-02T20:34:37.295Z,40.65
2022-11-02T20:37:05.185Z,38.85
2022-11-02T20:39:32.218Z,42.63
2022-11-02T20:41:59.113Z,45.75
2022-11-02T20:44:26.130Z,38.95
2022-11-02T20:46:53.645Z,41.65
2022-11-02T20:49:44.297Z,37.00
2022-11-02T20:52:10.108Z,39.78
2022-11-02T20:54:37.181Z,41.33
2022-11-02T20:57:04.224Z,39.15
2022-11-02T20:59:31.189Z,36.58
2022-11-02T21:01:58.267Z,35.05
2022-11-02T21:04:25.339Z,33.45
2022-11-02T21:06:52.486Z,38.85
2022-11-02T21:09:19.640Z,44.05
2022-11-02T21:12:05.311Z,36.20
2022-11-02T21:14:32.183Z,35.75
2022-11-02T21:16:59.106Z,35.15
2022-11-02T21:19:27.485Z,39.90
2022-11-02T21:21:59.345Z,35.40
2022-11-02T21:24:27.513Z,43.53
2022-11-02T21:26:54.502Z,42.38
2022-11-02T21:29:21.563Z,41.40
2022-11-02T21:31:48.832Z,42.08
2022-11-02T21:34:16.100Z,39.85
2022-11-02T21:36:43.074Z,40.95
2022-11-02T21:39:10.139Z,46.42
2022-11-02T21:41:38.978Z,40.42
2022-11-02T21:44:07.015Z,37.83
2022-11-02T21:46:34.140Z,44.67
2022-11-02T21:49:01.177Z,41.38
2022-11-02T21:51:28.635Z,33.63
2022-11-02T21:53:56.834Z,38.33
2022-11-02T21:56:27.790Z,39.13
2022-11-02T21:58:56.176Z,36.42
2022-11-02T22:01:42.940Z,39.05
2022-11-02T22:04:31.940Z,42.70
2022-11-02T22:07:01.528Z,44.42
2022-11-02T22:09:29.288Z,43.15
2022-11-02T22:12:15.875Z,40.92
2022-11-02T22:14:44.756Z,41.60
2022-11-02T22:17:21.974Z,42.75
2022-11-02T22:19:55.854Z,40.22
2022-11-02T22:22:23.929Z,41.85
2022-11-02T22:24:50.842Z,41.22
2022-11-02T22:27:17.810Z,41.92
2022-11-02T22:29:46.228Z,50.75
2022-11-02T22:32:14.622Z,49.20
2022-11-02T22:34:43.519Z,55.10
2022-11-02T22:37:28.945Z,46.60
2022-11-02T22:39:55.932Z,48.55
2022-11-02T22:42:22.860Z,45.78
2022-11-02T22:44:50.042Z,48.60
2022-11-02T22:47:17.043Z,49.30
2022-11-02T22:49:43.969Z,43.28
2022-11-02T22:52:10.928Z,41.80
2022-11-02T22:54:38.049Z,42.65
2022-11-02T22:57:05.057Z,50.60
2022-11-02T22:59:31.996Z,48.80
2022-11-02T23:01:59.140Z,45.17
2022-11-02T23:04:26.170Z,48.22
2022-11-02T23:06:53.165Z,42.75
2022-11-02T23:09:21.573Z,45.58
2022-11-02T23:11:48.572Z,40.65
2022-11-02T23:14:17.105Z,41.35
2022-11-02T23:16:49.131Z,46.45
2022-11-02T23:19:30.650Z,47.83
2022-11-02T23:22:20.653Z,43.90
2022-11-02T23:25:11.381Z,40.70
2022-11-02T23:28:06.003Z,42.75
2022-11-02T23:30:56.038Z,46.55
2022-11-02T23:33:25.185Z,48.92
2022-11-02T23:36:10.733Z,43.28
2022-11-02T23:39:00.936Z,48.85
2022-11-02T23:41:29.062Z,42.45
2022-11-02T23:44:11.634Z,43.25
2022-11-02T23:46:49.105Z,45.30
2022-11-02T23:49:18.171Z,46.00
2022-11-02T23:52:03.534Z,39.47
2022-11-02T23:54:48.936Z,42.45
2022-11-02T23:57:16.056Z,45.50
2022-11-02T23:59:42.936Z,51.13
